プンタアレナス の空港の天気 - METARとTAF

プンタアレナス空港 ( SCCI / PUQ ) - チリ プンタアレナス
飛行場実況気象(Metar)
観測時間02/17 11:00 CLST (02/17 14:00 UTC)
風向・風速西南西 6m/s
視程10km以上
天気現象
少しの雲 雲底高度 1220m
全天の8割程度の雲 雲底高度 6100m
気温9℃
湿度53%
気圧997hPa
METARSCCI 171400Z 25011KT 9999 FEW040 BKN200 09/M00 Q0997 NOSIG
過去の天気等 Google飛行場航空写真 Wunderground天気予報

過去48時間のMETAR

飛行場予報(TAF)
発表時間: 2/17 07:37 CLST (2/17 10:37 UTC)
予報対象時間: 17日9時 CLST ~ 18日9時 CLST
風向・風速西 4m/s
視程10km以上
少しの雲 雲底高度 1370m
17日17時 CLST ~ 17日21時 CLST に一時的に
視程9000m
天気現象弱い雨
全天の4割程度の雲 雲底高度 670m
全天の8割程度の雲 雲底高度 1070m
18日7時 CLST ~ 18日9時 CLST に徐々に
風向・風速西 9m/s
TAF SCCI 171037Z 1712/1812 28008KT 9999 FEW045 TN03/1810Z TX11/1719Z
TEMPO 1720/1800 9000 -RA SCT022 BKN035
BECMG 1810/1812 27017KT